CYHU/YHU METAR and TAF weather

Enter ICAO airport designator
Station Type Date Time Source
CYHU METAR 2022/08/16 19:37 UTC NOAA

CYHU 161937Z AUTO 05007KT 9SM TS FEW110 27/17 A3008 RMK LTNG DIST NE E SLP187 DENSITY ALT 1400FT


Station Type Date Time Source
CYHU Decoded METAR 2022/08/16 19:37 UTC NOAA

Saint Hubert Airport , Canada (CYHU) 45-31N 073-25W
Aug 16, 2022 - 03:37 PM EDT / 2022.08.16 1937 UTC
Wind: from the NE (050 degrees) at 8 MPH (7 KT):0
Visibility: 9 mile(s):0
Sky conditions: mostly clear
Weather: thunder
Temperature: 80 F (27 C)
Dew Point: 62 F (17 C)
Relative Humidity: 54%
Pressure (altimeter): 30.08 in. Hg (1018 hPa)
ob: CYHU 161937Z AUTO 05007KT 9SM TS FEW110 27/17 A3008 RMK LTNG DIST NE E SLP187 DENSITY ALT 1400FT
cycle: 19

Station Type Date Time Source
CYHU TAF 2022/08/16 19:45 UTC NOAA

TAF
AMD CYHU 161940Z 1619/1718 05010KT P6SM -SHRA BKN050
TEMPO 1619/1621 VRB15G25KT 3SM TSRA BR SCT030 BKN050CB
FM162100 05010KT P6SM SCT050
TEMPO 1621/1624 P6SM -SHRA BKN050 PROB30 1621/1623 VRB15G25KT 3SM TSRA BR SCT030 BKN050CB
FM170000 03005KT P6SM SCT050 BKN240
FM171300 04010KT P6SM BKN060 OVC160
RMK FCST BASED ON AUTO OBS. NXT FCST BY 170000Z

Example: see airport list